Terminal Aerodrome Forecast
Issued by NWS Pocatello, ID

Home | Current Version | Previous Version | Text Only | Print | Product List | Glossary On
Versions: 1 2 3 4 5 6 7 8 9 10 11 12 13
625
FTUS45 KPIH 202329
TAFIDA
TAF
KIDA 202329Z 2100/2124 20011KT P6SM SCT110 SCT200
     FM210300 22005KT P6SM FEW120
     FM211900 23011KT P6SM FEW090=

USA.gov is the U.S. government's official web portal to all federal, state and local government web resources and services.